Aviation Digital Data Service (ADDS)

Output produced by METARs form (0856 UTC 07 July 2015)
found at http://aviationweather.gov/adds/metars/
 
KISO 070520Z 0706/0806 20005KT P6SM SCT250 
     FM070900 21003KT 4SM BR SCT008 
     FM071300 22006KT P6SM SCT250 
     FM071800 21007KT P6SM VCTS SCT050CB 
     FM080000 19007KT P6SM BKN250 AMD LTD TO CLD VIS AND WIND